Air Resources Laboratory banner image
Air Resources Laboratory web site National Oceanic and Atmospheric Administration (NOAA)

sd metar


K2WX 211656Z AUTO 15014KT 19/06 A2989 RMK AO1 SLP116 T01940061 $=
K8D3 211656Z AUTO 11008KT 17/12 A3002 RMK AO1 SLP162 T01720122=
K9V9 211655Z AUTO 18004KT 10SM CLR 20/10 A3000 RMK AO2 T01970095=
KABR 211653Z AUTO VRB05KT 10SM BKN027 OVC032 19/12 A3001 RMK AO2 SLP161
 T01890117=
KATY 211653Z AUTO 18005KT 7SM OVC008 14/13 A3002 RMK AO2 RAB11E35 CIG 006V011
 SLP167 P0001 T01390133=
KBKX 211656Z AUTO 20005KT 10SM OVC012 15/13 A3003 RMK AO2 SLP182 T01500128=
KCUT 211653Z AUTO VRB04KT 10SM CLR 16/06 A3002 RMK AO2 SLP132 T01610061=
KD07 211656Z AUTO 15010KT 18/07 A2997 RMK AO1 SLP149 T01830072=
KFSD 211656Z 23003KT 8SM OVC008 15/13 A3003 RMK AO2 SLP168 T01500133=
KHON 211655Z AUTO 22005KT 10SM OVC011 14/12 A3002 RMK AO2 RAE1559 SLP166 P0000
 T01440122 $=
KIEN 211652Z AUTO 19009KT 10SM CLR 20/12 A2998 RMK AO2 SLP140 T02000117=
KLUD 211655Z AUTO 00000KT 10SM SCT023 BKN033 BKN043 25/18 A3006 RMK AO2
 T02540179=
KMBG 211652Z AUTO 14008KT 10SM CLR 19/06 A2998 RMK AO2 SLP150 T01940056=
KMHE 211653Z AUTO 00000KT 10SM SCT014 OVC019 16/12 A3003 RMK AO2 SLP169
 T01560122=
KPHP 211655Z AUTO 16008KT 10SM CLR 20/09 A2997 RMK AO2 SLP140 T02000094=
KPIR 211653Z AUTO VRB03KT 10SM CLR 18/07 A2999 RMK AO2 SLP151 T01830072=
KRAP 211652Z 17011G20KT 10SM CLR 19/11 A2996 RMK AO2 SLP140 T01890106=
KRCA 211656Z AUTO 17014KT 10SM CLR 19/11 A2995 RMK AO2 SLP138 T01890110 FZRANO
 $=
KSPF 211655Z AUTO 07005KT 10SM CLR 17/09 A2997 RMK AO2=
KYKN 211656Z AUTO 00000KT 10SM OVC014 16/12 A3004 RMK AO2 SLP184 T01560122=